createdAt,value
2018-09-20T00:02:03.671Z,20.04
2018-09-20T00:04:31.909Z,19.83
2018-09-20T00:07:00.134Z,20.08
2018-09-20T00:09:28.350Z,19.84
2018-09-20T00:11:56.578Z,20.01
2018-09-20T00:14:24.813Z,19.92
2018-09-20T00:16:53.046Z,20.00
2018-09-20T00:19:21.279Z,19.98
2018-09-20T00:21:49.503Z,19.82
2018-09-20T00:24:17.697Z,19.98
2018-09-20T00:26:45.947Z,19.96
2018-09-20T00:29:14.142Z,19.73
2018-09-20T00:31:42.353Z,19.84
2018-09-20T00:34:10.574Z,19.50
2018-09-20T00:36:38.820Z,19.68
2018-09-20T00:39:09.848Z,19.57
2018-09-20T00:41:38.098Z,19.35
2018-09-20T00:44:07.146Z,19.47
2018-09-20T00:46:35.350Z,19.61
2018-09-20T00:49:03.617Z,19.38
2018-09-20T00:51:31.838Z,19.43
2018-09-20T00:54:00.053Z,19.42
2018-09-20T00:56:28.272Z,19.17
2018-09-20T00:58:56.581Z,19.12
2018-09-20T01:01:25.061Z,19.27
2018-09-20T01:03:53.426Z,19.23
2018-09-20T01:06:22.257Z,19.26
2018-09-20T01:08:50.526Z,19.36
2018-09-20T01:11:18.768Z,19.41
2018-09-20T01:13:47.055Z,19.20
2018-09-20T01:16:15.557Z,19.27
2018-09-20T01:18:43.798Z,19.07
2018-09-20T01:21:13.085Z,19.10
2018-09-20T01:23:41.301Z,19.08
2018-09-20T01:26:09.521Z,19.13
2018-09-20T01:28:37.734Z,19.06
2018-09-20T01:31:05.971Z,18.93
2018-09-20T01:33:34.207Z,19.11
2018-09-20T01:36:02.427Z,18.89
2018-09-20T01:38:30.657Z,18.79
2018-09-20T01:40:58.862Z,19.03
2018-09-20T01:43:27.087Z,19.02
2018-09-20T01:45:55.322Z,19.10
2018-09-20T01:48:23.538Z,18.79
2018-09-20T01:50:51.823Z,18.77
2018-09-20T01:53:20.053Z,18.88
2018-09-20T01:55:48.287Z,18.80
2018-09-20T01:58:16.509Z,18.82
2018-09-20T02:00:44.736Z,18.90
2018-09-20T02:03:12.970Z,18.61
2018-09-20T02:05:41.200Z,18.76
2018-09-20T02:08:09.406Z,18.60
2018-09-20T02:10:37.623Z,18.54
2018-09-20T02:13:05.870Z,18.61
2018-09-20T02:15:34.121Z,18.71
2018-09-20T02:18:02.391Z,18.61
2018-09-20T02:20:30.837Z,18.48
2018-09-20T02:22:59.085Z,18.42
2018-09-20T02:25:27.342Z,18.61
2018-09-20T02:27:55.645Z,18.45
2018-09-20T02:30:23.883Z,18.27
2018-09-20T02:32:52.092Z,18.59
2018-09-20T02:35:20.422Z,18.37
2018-09-20T02:37:48.638Z,18.45
2018-09-20T02:40:16.876Z,18.48
2018-09-20T02:42:45.098Z,18.38
2018-09-20T02:45:13.314Z,18.36
2018-09-20T02:47:41.530Z,18.44
2018-09-20T02:50:09.757Z,18.29
2018-09-20T02:52:37.976Z,18.34
2018-09-20T02:55:06.233Z,18.29
2018-09-20T02:57:34.429Z,18.04
2018-09-20T03:00:02.655Z,18.20
2018-09-20T03:02:30.874Z,18.18
2018-09-20T03:04:59.106Z,18.15
2018-09-20T03:07:27.315Z,18.19
2018-09-20T03:09:55.522Z,18.11
2018-09-20T03:12:23.742Z,18.11
2018-09-20T03:14:51.971Z,18.02
2018-09-20T03:17:20.181Z,18.11
2018-09-20T03:19:48.827Z,18.20
2018-09-20T03:22:17.041Z,18.18
2018-09-20T03:24:45.257Z,18.20
2018-09-20T03:27:13.482Z,18.18
2018-09-20T03:29:41.711Z,18.22
2018-09-20T03:32:09.927Z,18.12
2018-09-20T03:34:38.143Z,17.92
2018-09-20T03:37:06.407Z,18.06
2018-09-20T03:39:34.611Z,18.10
2018-09-20T03:42:02.847Z,17.93
2018-09-20T03:44:31.062Z,17.89
2018-09-20T03:46:59.298Z,18.02
2018-09-20T03:49:27.514Z,17.89
2018-09-20T03:51:55.719Z,17.89
2018-09-20T03:54:24.025Z,17.56
2018-09-20T03:56:52.453Z,17.44
2018-09-20T03:59:20.726Z,17.64
2018-09-20T04:01:48.926Z,17.77
2018-09-20T04:04:17.146Z,17.70
2018-09-20T04:06:45.361Z,17.85
2018-09-20T04:09:13.594Z,17.63
2018-09-20T04:11:41.858Z,17.70
2018-09-20T04:14:10.326Z,17.70
2018-09-20T04:16:38.569Z,17.76
2018-09-20T04:19:06.834Z,17.77
2018-09-20T04:21:35.969Z,17.72
2018-09-20T04:24:06.690Z,17.67
2018-09-20T04:26:34.930Z,17.63
2018-09-20T04:29:03.211Z,17.58
2018-09-20T04:31:31.877Z,17.42
2018-09-20T04:34:01.006Z,17.32
2018-09-20T04:36:29.701Z,17.43
2018-09-20T04:38:57.926Z,17.50
2018-09-20T04:41:27.278Z,17.48
2018-09-20T04:43:55.493Z,17.66
2018-09-20T04:46:23.714Z,17.64
2018-09-20T04:48:51.931Z,17.58
2018-09-20T04:51:20.689Z,17.56
2018-09-20T04:53:48.898Z,17.61
2018-09-20T04:56:17.106Z,17.47
2018-09-20T04:58:45.340Z,17.57
2018-09-20T05:01:13.546Z,17.50
2018-09-20T05:03:41.766Z,17.56
2018-09-20T05:06:09.984Z,17.57
2018-09-20T05:08:38.193Z,17.56
2018-09-20T05:11:06.410Z,17.08
2018-09-20T05:13:34.645Z,16.86
2018-09-20T05:16:02.882Z,17.19
2018-09-20T05:18:31.103Z,17.27
2018-09-20T05:20:59.313Z,17.35
2018-09-20T05:23:27.537Z,17.03
2018-09-20T05:25:55.829Z,17.09
2018-09-20T05:28:24.119Z,17.21
2018-09-20T05:30:52.335Z,17.16
2018-09-20T05:33:20.654Z,17.24
2018-09-20T05:35:48.828Z,17.27
2018-09-20T05:38:17.021Z,17.19
2018-09-20T05:40:45.314Z,17.30
2018-09-20T05:43:13.562Z,17.41
2018-09-20T05:45:41.790Z,17.15
2018-09-20T05:48:11.095Z,17.35
2018-09-20T05:50:39.369Z,17.41
2018-09-20T05:53:07.518Z,17.50
2018-09-20T05:55:35.887Z,17.40
2018-09-20T05:58:04.106Z,17.38
2018-09-20T06:00:32.363Z,17.24
2018-09-20T06:03:00.602Z,17.46
2018-09-20T06:05:29.968Z,17.40
2018-09-20T06:07:58.133Z,17.39
2018-09-20T06:10:26.345Z,17.54
2018-09-20T06:12:54.661Z,17.50
2018-09-20T06:15:22.883Z,17.61
2018-09-20T06:17:51.085Z,17.65
2018-09-20T06:20:19.730Z,17.69
2018-09-20T06:22:47.942Z,17.74
2018-09-20T06:25:16.175Z,17.88
2018-09-20T06:27:44.558Z,18.05
2018-09-20T06:30:12.720Z,18.04
2018-09-20T06:32:40.970Z,18.15
2018-09-20T06:35:09.183Z,18.24
2018-09-20T06:37:37.406Z,18.40
2018-09-20T06:40:05.856Z,18.47
2018-09-20T06:42:34.070Z,18.74
2018-09-20T06:45:02.293Z,18.89
2018-09-20T06:47:30.517Z,18.96
2018-09-20T06:49:58.730Z,18.91
2018-09-20T06:52:26.967Z,18.71
2018-09-20T06:54:55.169Z,19.06
2018-09-20T06:57:23.383Z,19.41
2018-09-20T06:59:51.593Z,19.40
2018-09-20T07:02:19.805Z,19.54
2018-09-20T07:04:48.012Z,19.44
2018-09-20T07:07:16.238Z,19.78
2018-09-20T07:09:44.450Z,19.65
2018-09-20T07:12:12.668Z,19.81
2018-09-20T07:14:40.869Z,20.20
2018-09-20T07:17:09.091Z,20.12
2018-09-20T07:19:37.329Z,20.26
2018-09-20T07:22:05.541Z,20.23
2018-09-20T07:24:33.782Z,20.55
2018-09-20T07:27:01.990Z,20.97
2018-09-20T07:29:30.224Z,20.69
2018-09-20T07:31:58.437Z,20.80
2018-09-20T07:34:26.649Z,21.38
2018-09-20T07:36:54.866Z,21.31
2018-09-20T07:39:23.082Z,21.79
2018-09-20T07:41:51.298Z,21.73
2018-09-20T07:44:19.514Z,21.86
2018-09-20T07:46:47.727Z,22.10
2018-09-20T07:49:15.981Z,22.21
2018-09-20T07:51:44.198Z,22.40
2018-09-20T07:54:12.418Z,22.10
2018-09-20T07:56:40.658Z,22.43
2018-09-20T07:59:08.851Z,22.77
2018-09-20T08:01:37.155Z,23.36
2018-09-20T08:04:05.305Z,24.07
2018-09-20T08:06:33.520Z,24.84
2018-09-20T08:09:01.766Z,24.04
2018-09-20T08:11:30.053Z,23.89
2018-09-20T08:13:58.281Z,24.77
2018-09-20T08:16:26.562Z,24.51
2018-09-20T08:18:54.773Z,24.99
2018-09-20T08:21:23.030Z,25.82
2018-09-20T08:23:51.209Z,25.73
2018-09-20T08:26:19.423Z,26.00
2018-09-20T08:28:47.627Z,25.79
2018-09-20T08:31:15.857Z,25.63
2018-09-20T08:33:44.072Z,25.46
2018-09-20T08:36:12.314Z,25.17
2018-09-20T08:38:40.530Z,25.39
2018-09-20T08:41:08.753Z,24.96
2018-09-20T08:43:36.947Z,24.64
2018-09-20T08:46:05.189Z,25.33
2018-09-20T08:48:33.423Z,24.86
2018-09-20T08:51:01.688Z,24.50
2018-09-20T08:53:29.890Z,24.47
2018-09-20T08:55:58.101Z,24.82
2018-09-20T08:58:26.350Z,24.35
2018-09-20T09:00:54.565Z,24.53
2018-09-20T09:03:22.785Z,25.13
2018-09-20T09:05:50.989Z,24.85
2018-09-20T09:08:19.226Z,24.88
2018-09-20T09:10:47.439Z,24.31
2018-09-20T09:13:15.658Z,24.25
2018-09-20T09:15:43.873Z,24.25
2018-09-20T09:18:12.090Z,24.04
2018-09-20T09:20:40.343Z,24.28
2018-09-20T09:23:08.567Z,24.30
2018-09-20T09:25:36.773Z,24.37
2018-09-20T09:28:05.425Z,24.40
2018-09-20T09:30:33.639Z,24.85
2018-09-20T09:33:01.863Z,24.68
2018-09-20T09:35:30.098Z,24.96
2018-09-20T09:37:58.343Z,24.97
2018-09-20T09:40:26.595Z,24.91
2018-09-20T09:42:54.803Z,25.03
2018-09-20T09:45:23.002Z,25.20
2018-09-20T09:47:51.213Z,25.18
2018-09-20T09:50:19.434Z,24.93
2018-09-20T09:52:47.754Z,24.86
2018-09-20T09:55:15.989Z,24.70
2018-09-20T09:57:47.498Z,24.69
2018-09-20T10:00:15.713Z,24.65
2018-09-20T10:02:43.921Z,24.62
2018-09-20T10:05:12.152Z,24.55
2018-09-20T10:07:40.382Z,24.58
2018-09-20T10:10:08.598Z,24.89
2018-09-20T10:12:36.841Z,24.96
2018-09-20T10:15:05.210Z,25.27
2018-09-20T10:17:33.441Z,25.35
2018-09-20T10:20:01.709Z,25.27
2018-09-20T10:22:30.205Z,25.11
2018-09-20T10:24:58.434Z,25.57
2018-09-20T10:27:26.682Z,25.84
2018-09-20T10:29:54.904Z,25.94
2018-09-20T10:32:23.146Z,25.97
2018-09-20T10:34:51.368Z,25.92
2018-09-20T10:37:19.590Z,25.95
2018-09-20T10:39:47.811Z,25.71
2018-09-20T10:42:16.055Z,25.63
2018-09-20T10:44:44.270Z,25.84
2018-09-20T10:47:12.631Z,25.85
2018-09-20T10:49:40.803Z,25.76
2018-09-20T10:52:09.073Z,25.85
2018-09-20T10:54:37.634Z,25.96
2018-09-20T10:57:05.806Z,25.94
2018-09-20T10:59:34.042Z,26.20
2018-09-20T11:02:02.267Z,26.21
2018-09-20T11:04:30.524Z,26.22
2018-09-20T11:06:58.761Z,26.53
2018-09-20T11:09:27.013Z,26.29
2018-09-20T11:11:55.234Z,26.34
2018-09-20T11:14:23.454Z,26.40
2018-09-20T11:16:51.704Z,26.42
2018-09-20T11:19:19.943Z,26.49
2018-09-20T11:21:48.196Z,26.60
2018-09-20T11:24:16.433Z,26.50
2018-09-20T11:26:44.668Z,26.63
2018-09-20T11:29:12.964Z,26.71
2018-09-20T11:31:41.189Z,26.73
2018-09-20T11:34:09.654Z,26.84
2018-09-20T11:36:37.893Z,26.69
2018-09-20T11:39:08.679Z,26.69
2018-09-20T11:41:37.163Z,26.78
2018-09-20T11:44:05.405Z,26.69
2018-09-20T11:46:33.715Z,26.92
2018-09-20T11:49:01.955Z,26.68
2018-09-20T11:51:30.258Z,26.78
2018-09-20T11:53:58.582Z,26.80
2018-09-20T11:56:26.807Z,27.09
2018-09-20T11:58:55.093Z,27.10
2018-09-20T12:01:23.339Z,27.15
2018-09-20T12:03:51.576Z,27.25
2018-09-20T12:06:19.822Z,27.36
2018-09-20T12:08:48.034Z,27.19
2018-09-20T12:11:16.581Z,27.06
2018-09-20T12:13:44.830Z,27.08
2018-09-20T12:16:13.079Z,27.19
2018-09-20T12:18:41.305Z,27.30
2018-09-20T12:21:09.539Z,27.17
2018-09-20T12:23:37.805Z,27.10
2018-09-20T12:26:06.158Z,27.09
2018-09-20T12:28:34.455Z,27.25
2018-09-20T12:31:02.720Z,27.36
2018-09-20T12:33:32.036Z,27.51
2018-09-20T12:36:01.432Z,27.74
2018-09-20T12:38:29.624Z,27.71
2018-09-20T12:40:57.894Z,27.80
2018-09-20T12:43:26.218Z,28.14
2018-09-20T12:45:56.535Z,27.99
2018-09-20T12:48:24.851Z,28.13
2018-09-20T12:50:53.024Z,28.08
2018-09-20T12:53:21.278Z,27.79
2018-09-20T12:55:49.534Z,27.84
2018-09-20T12:58:17.826Z,28.14
2018-09-20T13:00:46.225Z,28.27
2018-09-20T13:03:14.483Z,28.41
2018-09-20T13:05:42.755Z,28.44
2018-09-20T13:08:13.310Z,28.29
2018-09-20T13:10:41.606Z,28.34
2018-09-20T13:13:09.870Z,28.31
2018-09-20T13:15:38.086Z,28.45
2018-09-20T13:18:06.349Z,28.69
2018-09-20T13:20:34.596Z,28.69
2018-09-20T13:23:02.879Z,28.39
2018-09-20T13:25:31.137Z,28.78
2018-09-20T13:27:59.355Z,28.71
2018-09-20T13:30:27.625Z,28.54
2018-09-20T13:32:55.847Z,28.51
2018-09-20T13:35:24.115Z,28.78
2018-09-20T13:37:52.350Z,28.74
2018-09-20T13:40:20.646Z,28.92
2018-09-20T13:42:48.873Z,28.75
2018-09-20T13:45:17.143Z,28.53
2018-09-20T13:47:45.363Z,28.69
2018-09-20T13:50:13.654Z,28.77
2018-09-20T13:52:41.962Z,28.77
2018-09-20T13:55:10.201Z,28.78
2018-09-20T13:57:38.448Z,28.83
2018-09-20T14:00:07.392Z,28.84
2018-09-20T14:02:35.638Z,29.03
2018-09-20T14:05:03.934Z,29.14
2018-09-20T14:07:32.191Z,28.81
2018-09-20T14:10:00.452Z,28.88
2018-09-20T14:12:28.727Z,29.07
2018-09-20T14:14:56.966Z,29.19
2018-09-20T14:17:25.237Z,29.01
2018-09-20T14:19:55.528Z,29.03
2018-09-20T14:22:23.753Z,28.74
2018-09-20T14:24:52.020Z,28.75
2018-09-20T14:27:20.286Z,29.00
2018-09-20T14:29:48.518Z,28.84
2018-09-20T14:32:16.790Z,28.75
2018-09-20T14:34:45.085Z,29.00
2018-09-20T14:37:13.370Z,28.97
2018-09-20T14:39:41.574Z,28.84
2018-09-20T14:42:09.783Z,28.90
2018-09-20T14:44:38.014Z,28.92
2018-09-20T14:47:06.241Z,29.16
2018-09-20T14:49:34.489Z,29.01
2018-09-20T14:52:02.731Z,28.90
2018-09-20T14:54:30.962Z,28.85
2018-09-20T14:56:59.299Z,28.91
2018-09-20T14:59:27.526Z,28.86
2018-09-20T15:01:55.745Z,28.77
2018-09-20T15:04:23.969Z,28.91
2018-09-20T15:06:52.177Z,28.79
2018-09-20T15:09:20.403Z,28.74
2018-09-20T15:11:48.651Z,28.57
2018-09-20T15:14:16.893Z,28.69
2018-09-20T15:16:45.139Z,28.67
2018-09-20T15:19:13.366Z,28.80
2018-09-20T15:21:41.626Z,28.72
2018-09-20T15:24:09.842Z,28.71
2018-09-20T15:26:38.085Z,28.62
2018-09-20T15:29:06.353Z,28.66
2018-09-20T15:31:34.605Z,28.61
2018-09-20T15:34:02.868Z,28.53
2018-09-20T15:36:31.100Z,28.52
2018-09-20T15:38:59.323Z,28.56
2018-09-20T15:41:27.593Z,28.49
2018-09-20T15:43:55.838Z,28.39
2018-09-20T15:46:24.054Z,28.29
2018-09-20T15:48:52.288Z,28.45
2018-09-20T15:51:20.493Z,28.34
2018-09-20T15:53:48.717Z,28.28
2018-09-20T15:56:16.930Z,28.11
2018-09-20T15:58:45.166Z,28.14
2018-09-20T16:01:13.850Z,28.09
2018-09-20T16:03:43.342Z,28.22
2018-09-20T16:06:11.636Z,28.23
2018-09-20T16:08:40.679Z,28.30
2018-09-20T16:11:08.918Z,28.14
2018-09-20T16:13:37.208Z,28.13
2018-09-20T16:16:05.430Z,28.22
2018-09-20T16:18:33.734Z,28.07
2018-09-20T16:21:01.974Z,28.09
2018-09-20T16:23:30.341Z,27.95
2018-09-20T16:25:58.534Z,27.81
2018-09-20T16:29:05.373Z,27.69
2018-09-20T16:31:46.216Z,27.63
2018-09-20T16:34:26.404Z,27.62
2018-09-20T16:37:03.591Z,27.61
2018-09-20T16:39:35.915Z,27.53
2018-09-20T16:42:04.838Z,27.48
2018-09-20T16:44:33.086Z,27.29
2018-09-20T16:47:01.323Z,27.29
2018-09-20T16:49:29.554Z,27.24
2018-09-20T16:51:57.801Z,27.15
2018-09-20T16:54:26.028Z,27.01
2018-09-20T16:56:54.318Z,26.96
2018-09-20T16:59:22.544Z,26.98
2018-09-20T17:01:51.354Z,26.90
2018-09-20T17:04:19.586Z,26.80
2018-09-20T17:06:47.826Z,26.69
2018-09-20T17:09:16.090Z,26.84
2018-09-20T17:11:44.309Z,26.53
2018-09-20T17:14:12.538Z,26.53
2018-09-20T17:16:40.897Z,26.35
2018-09-20T17:19:09.159Z,26.33
2018-09-20T17:21:37.379Z,26.30
2018-09-20T17:24:05.641Z,26.09
2018-09-20T17:26:33.867Z,26.06
2018-09-20T17:29:02.116Z,26.00
2018-09-20T17:31:33.767Z,25.98
2018-09-20T17:34:02.294Z,25.96
2018-09-20T17:36:30.906Z,25.98
2018-09-20T17:39:00.118Z,25.85
2018-09-20T17:41:30.945Z,25.64
2018-09-20T17:44:03.154Z,25.61
2018-09-20T17:46:31.390Z,25.50
2018-09-20T17:48:59.625Z,25.47
2018-09-20T17:51:28.890Z,25.41
2018-09-20T17:53:58.940Z,25.36
2018-09-20T17:56:30.082Z,25.16
2018-09-20T17:58:59.848Z,25.04
2018-09-20T18:01:29.896Z,25.14
2018-09-20T18:04:00.826Z,25.05
2018-09-20T18:06:30.646Z,24.99
2018-09-20T18:09:00.502Z,25.04
2018-09-20T18:11:31.080Z,24.98
2018-09-20T18:13:59.323Z,24.94
2018-09-20T18:16:27.638Z,24.91
2018-09-20T18:18:55.975Z,24.73
2018-09-20T18:21:24.206Z,24.77
2018-09-20T18:23:52.461Z,24.69
2018-09-20T18:26:20.702Z,24.68
2018-09-20T18:28:48.906Z,24.57
2018-09-20T18:31:17.125Z,24.52
2018-09-20T18:33:45.350Z,24.47
2018-09-20T18:36:13.587Z,24.46
2018-09-20T18:38:41.867Z,24.31
2018-09-20T18:41:10.138Z,24.23
2018-09-20T18:43:38.367Z,24.06
2018-09-20T18:46:06.614Z,24.07
2018-09-20T18:48:34.872Z,24.11
2018-09-20T18:51:03.097Z,24.08
2018-09-20T18:53:31.331Z,24.11
2018-09-20T18:55:59.599Z,23.88
2018-09-20T18:58:27.825Z,23.76
2018-09-20T19:00:56.030Z,23.82
2018-09-20T19:03:24.586Z,23.63
2018-09-20T19:05:52.836Z,23.67
2018-09-20T19:08:21.326Z,23.63
2018-09-20T19:10:49.665Z,23.41
2018-09-20T19:13:17.882Z,23.40
2018-09-20T19:15:46.103Z,23.39
2018-09-20T19:18:14.430Z,23.36
2018-09-20T19:20:42.669Z,23.38
2018-09-20T19:23:10.910Z,23.21
2018-09-20T19:25:39.143Z,23.19
2018-09-20T19:28:07.354Z,23.27
2018-09-20T19:30:35.586Z,23.30
2018-09-20T19:33:03.812Z,23.16
2018-09-20T19:35:32.321Z,23.17
2018-09-20T19:38:00.571Z,23.15
2018-09-20T19:40:28.798Z,23.23
2018-09-20T19:42:57.017Z,23.17
2018-09-20T19:45:25.247Z,23.13
2018-09-20T19:47:53.473Z,22.99
2018-09-20T19:50:21.691Z,23.19
2018-09-20T19:52:49.912Z,23.05
2018-09-20T19:55:18.130Z,22.94
2018-09-20T19:57:46.624Z,23.10
2018-09-20T20:00:14.906Z,23.05
2018-09-20T20:02:43.109Z,22.99
2018-09-20T20:05:11.449Z,22.98
2018-09-20T20:07:39.761Z,22.96
2018-09-20T20:10:09.060Z,22.77
2018-09-20T20:12:41.665Z,22.79
2018-09-20T20:15:10.942Z,22.72
2018-09-20T20:17:39.228Z,22.59
2018-09-20T20:20:07.780Z,22.66
2018-09-20T20:22:36.486Z,22.65
2018-09-20T20:25:04.738Z,22.69
2018-09-20T20:28:05.912Z,22.85
2018-09-20T20:30:34.159Z,22.86
2018-09-20T20:33:02.729Z,22.78
2018-09-20T20:35:31.119Z,22.96
2018-09-20T20:37:59.354Z,22.92
2018-09-20T20:40:27.623Z,22.91
2018-09-20T20:42:55.845Z,22.76
2018-09-20T20:45:24.107Z,22.90
2018-09-20T20:47:52.337Z,22.88
2018-09-20T20:50:20.571Z,22.78
2018-09-20T20:52:48.854Z,22.69
2018-09-20T20:58:08.033Z,22.62
2018-09-20T21:00:36.249Z,22.81
2018-09-20T21:03:04.489Z,22.72
2018-09-20T21:05:32.718Z,22.75
2018-09-20T21:08:00.941Z,22.70
2018-09-20T21:10:29.229Z,22.70
2018-09-20T21:12:57.462Z,22.63
2018-09-20T21:15:25.700Z,22.75
2018-09-20T21:17:53.998Z,22.44
2018-09-20T21:20:22.233Z,22.67
2018-09-20T21:22:50.454Z,22.45
2018-09-20T21:25:18.699Z,22.51
2018-09-20T21:27:46.975Z,22.71
2018-09-20T21:30:15.171Z,22.48
2018-09-20T21:32:43.414Z,22.55
2018-09-20T21:35:11.647Z,22.60
2018-09-20T21:37:40.147Z,22.68
2018-09-20T21:40:08.415Z,22.62
2018-09-20T21:42:36.646Z,22.70
2018-09-20T21:45:04.949Z,22.52
2018-09-20T21:47:33.190Z,22.58
2018-09-20T21:50:01.404Z,22.56
2018-09-20T21:52:29.639Z,22.66
2018-09-20T21:54:57.857Z,22.59
2018-09-20T21:57:26.090Z,22.57
2018-09-20T21:59:54.326Z,22.62
2018-09-20T22:02:27.811Z,22.47
2018-09-20T22:04:56.033Z,22.34
2018-09-20T22:07:24.238Z,22.35
2018-09-20T22:09:52.495Z,22.35
2018-09-20T22:12:20.730Z,22.40
2018-09-20T22:14:48.950Z,22.37
2018-09-20T22:17:17.181Z,22.30
2018-09-20T22:19:45.462Z,22.41
2018-09-20T22:22:13.698Z,22.32
2018-09-20T22:24:41.943Z,22.38
2018-09-20T22:27:10.147Z,22.43
2018-09-20T22:29:38.358Z,22.43
2018-09-20T22:32:06.617Z,22.37
2018-09-20T22:34:34.838Z,22.33
2018-09-20T22:37:03.057Z,22.19
2018-09-20T22:39:31.317Z,22.28
2018-09-20T22:41:59.502Z,22.20
2018-09-20T22:44:27.765Z,22.32
2018-09-20T22:46:55.969Z,22.26
2018-09-20T22:49:24.226Z,22.29
2018-09-20T22:51:52.469Z,22.22
2018-09-20T22:54:20.685Z,22.24
2018-09-20T22:56:48.932Z,22.13
2018-09-20T22:59:17.181Z,22.24
2018-09-20T23:01:45.406Z,22.26
2018-09-20T23:04:15.461Z,22.19
2018-09-20T23:06:43.681Z,22.13
2018-09-20T23:09:12.099Z,22.04
2018-09-20T23:11:41.014Z,22.07
2018-09-20T23:14:10.911Z,22.10
2018-09-20T23:16:39.201Z,22.19
2018-09-20T23:19:07.554Z,22.13
2018-09-20T23:21:35.802Z,22.17
2018-09-20T23:24:04.034Z,22.04
2018-09-20T23:26:32.258Z,22.19
2018-09-20T23:29:00.518Z,22.21
2018-09-20T23:31:28.729Z,21.95
2018-09-20T23:33:56.964Z,22.16
2018-09-20T23:36:25.222Z,22.07
2018-09-20T23:38:53.461Z,22.19
2018-09-20T23:41:21.686Z,21.94
2018-09-20T23:43:49.923Z,22.15
2018-09-20T23:46:18.159Z,22.01
2018-09-20T23:48:46.442Z,22.09
2018-09-20T23:51:14.925Z,22.03
2018-09-20T23:53:43.191Z,22.09
2018-09-20T23:56:11.434Z,21.93
2018-09-20T23:58:39.724Z,22.12
